createdAt,value
2023-03-03T00:02:39.704Z,102369.16
2023-03-03T00:05:27.531Z,102367.75
2023-03-03T00:08:14.123Z,102361.22
2023-03-03T00:11:03.254Z,102363.41
2023-03-03T00:13:52.657Z,102367.41
2023-03-03T00:16:39.736Z,102370.69
2023-03-03T00:19:26.446Z,102369.25
2023-03-03T00:22:27.022Z,102367.03
2023-03-03T00:25:29.845Z,102379.63
2023-03-03T00:28:28.401Z,102364.78
2023-03-03T00:31:18.635Z,102360.94
2023-03-03T00:34:24.063Z,102371.09
2023-03-03T00:37:26.769Z,102361.53
2023-03-03T00:40:21.775Z,102366.69
2023-03-03T00:43:18.867Z,102370.75
2023-03-03T00:46:05.230Z,102379.28
2023-03-03T00:48:52.617Z,102383.34
2023-03-03T00:51:39.051Z,102381.44
2023-03-03T00:54:26.723Z,102378.47
2023-03-03T00:57:13.633Z,102377.41
2023-03-03T01:00:01.709Z,102381.81
2023-03-03T01:02:50.490Z,102382.81
2023-03-03T01:05:37.710Z,102381.72
2023-03-03T01:08:24.578Z,102392.41
2023-03-03T01:11:16.242Z,102387.75
2023-03-03T01:14:02.923Z,102399.00
2023-03-03T01:16:50.216Z,102386.44
2023-03-03T01:19:37.635Z,102393.56
2023-03-03T01:22:24.013Z,102395.13
2023-03-03T01:25:11.570Z,102395.22
2023-03-03T01:27:59.767Z,102393.94
2023-03-03T01:30:46.197Z,102390.13
2023-03-03T01:33:33.204Z,102395.50
2023-03-03T01:36:24.391Z,102393.56
2023-03-03T01:39:11.567Z,102402.75
2023-03-03T01:41:57.767Z,102403.03
2023-03-03T01:44:45.844Z,102404.84
2023-03-03T01:47:35.199Z,102398.56
2023-03-03T01:50:33.667Z,102404.03
2023-03-03T01:53:24.644Z,102401.41
2023-03-03T01:56:11.488Z,102411.13
2023-03-03T01:59:02.700Z,102407.16
2023-03-03T02:01:51.362Z,102399.47
2023-03-03T02:04:38.162Z,102400.44
2023-03-03T02:07:29.084Z,102408.63
2023-03-03T02:10:18.362Z,102412.59
2023-03-03T02:13:04.833Z,102402.97
2023-03-03T02:15:51.472Z,102400.19
2023-03-03T02:18:39.369Z,102403.03
2023-03-03T02:21:27.719Z,102400.13
2023-03-03T02:24:19.075Z,102395.94
2023-03-03T02:27:08.101Z,102398.84
2023-03-03T02:29:54.709Z,102397.63
2023-03-03T02:32:41.231Z,102396.50
2023-03-03T02:35:34.589Z,102396.59
2023-03-03T02:38:26.780Z,102393.75
2023-03-03T02:41:22.865Z,102398.81
2023-03-03T02:44:13.364Z,102400.03
2023-03-03T02:47:00.972Z,102403.75
2023-03-03T02:49:47.470Z,102402.28
2023-03-03T02:52:33.954Z,102402.09
2023-03-03T02:55:20.669Z,102399.09
2023-03-03T02:58:07.278Z,102397.72
2023-03-03T03:00:55.527Z,102393.94
2023-03-03T03:03:42.824Z,102392.97
2023-03-03T03:06:30.182Z,102401.84
2023-03-03T03:09:18.267Z,102396.94
2023-03-03T03:12:06.771Z,102397.91
2023-03-03T03:14:54.906Z,102405.47
2023-03-03T03:17:43.550Z,102399.91
2023-03-03T03:20:30.953Z,102396.09
2023-03-03T03:23:18.180Z,102396.34
2023-03-03T03:26:05.027Z,102401.53
2023-03-03T03:28:52.582Z,102401.06
2023-03-03T03:31:39.345Z,102399.69
2023-03-03T03:34:27.453Z,102414.59
2023-03-03T03:37:17.053Z,102410.44
2023-03-03T03:40:06.840Z,102411.66
2023-03-03T03:42:53.847Z,102415.13
2023-03-03T03:45:40.657Z,102411.16
2023-03-03T03:48:27.687Z,102411.16
2023-03-03T03:51:16.561Z,102407.16
2023-03-03T03:54:03.135Z,102407.28
2023-03-03T03:56:49.788Z,102409.88
2023-03-03T03:59:36.447Z,102400.63
2023-03-03T04:02:23.849Z,102406.41
2023-03-03T04:05:10.825Z,102403.63
2023-03-03T04:07:59.155Z,102404.91
2023-03-03T04:10:45.776Z,102406.41
2023-03-03T04:13:35.135Z,102399.78
2023-03-03T04:16:22.959Z,102407.84
2023-03-03T04:19:10.262Z,102404.09
2023-03-03T04:21:58.102Z,102407.88
2023-03-03T04:24:48.547Z,102408.13
2023-03-03T04:27:37.881Z,102404.09
2023-03-03T04:30:24.900Z,102407.53
2023-03-03T04:33:14.168Z,102404.16
2023-03-03T04:36:01.286Z,102404.44
2023-03-03T04:38:49.093Z,102409.09
2023-03-03T04:41:37.250Z,102405.03
2023-03-03T04:44:24.167Z,102412.47
2023-03-03T04:47:11.707Z,102412.53
2023-03-03T04:49:58.311Z,102409.25
2023-03-03T04:52:45.015Z,102415.13
2023-03-03T04:55:33.067Z,102413.47
2023-03-03T04:58:21.718Z,102416.91
2023-03-03T05:01:08.156Z,102412.06
2023-03-03T05:03:54.950Z,102414.44
2023-03-03T05:06:42.309Z,102421.25
2023-03-03T05:09:29.035Z,102415.09
2023-03-03T05:12:15.111Z,102408.41
2023-03-03T05:15:02.911Z,102410.88
2023-03-03T05:17:49.056Z,102413.09
2023-03-03T05:20:35.624Z,102419.69
2023-03-03T05:23:23.321Z,102412.16
2023-03-03T05:26:09.441Z,102402.91
2023-03-03T05:28:56.059Z,102406.00
2023-03-03T05:31:45.564Z,102409.31
2023-03-03T05:34:32.196Z,102408.75
2023-03-03T05:37:18.760Z,102418.78
2023-03-03T05:40:06.759Z,102413.91
2023-03-03T05:42:53.531Z,102419.63
2023-03-03T05:45:40.037Z,102418.78
2023-03-03T05:48:27.758Z,102417.16
2023-03-03T05:51:14.268Z,102416.69
2023-03-03T05:54:00.713Z,102425.69
2023-03-03T05:56:47.280Z,102426.38
2023-03-03T05:59:33.657Z,102420.53
2023-03-03T06:02:20.094Z,102423.97
2023-03-03T06:05:09.397Z,102421.78
2023-03-03T06:07:55.852Z,102430.75
2023-03-03T06:10:42.326Z,102430.19
2023-03-03T06:13:30.910Z,102429.03
2023-03-03T06:16:18.131Z,102434.13
2023-03-03T06:19:04.462Z,102436.97
2023-03-03T06:21:52.090Z,102433.53
2023-03-03T06:24:38.688Z,102446.50
2023-03-03T06:27:24.851Z,102453.09
2023-03-03T06:30:12.932Z,102454.31
2023-03-03T06:32:59.638Z,102457.09
2023-03-03T06:35:46.275Z,102453.50
2023-03-03T06:38:33.954Z,102453.78
2023-03-03T06:41:20.521Z,102454.91
2023-03-03T06:44:07.742Z,102461.78
2023-03-03T06:46:57.236Z,102466.56
2023-03-03T06:49:44.017Z,102461.31
2023-03-03T06:52:30.444Z,102465.63
2023-03-03T06:55:24.410Z,102477.66
2023-03-03T06:58:14.289Z,102478.69
2023-03-03T07:01:02.299Z,102475.06
2023-03-03T07:03:48.855Z,102481.31
2023-03-03T07:06:35.889Z,102478.31
2023-03-03T07:09:25.028Z,102487.50
2023-03-03T07:12:16.537Z,102496.66
2023-03-03T07:15:15.898Z,102493.88
2023-03-03T07:18:03.191Z,102503.34
2023-03-03T07:20:49.709Z,102496.88
2023-03-03T07:23:42.629Z,102501.16
2023-03-03T07:26:32.813Z,102504.41
2023-03-03T07:29:25.889Z,102503.06
2023-03-03T07:32:25.854Z,102501.72
2023-03-03T07:35:30.648Z,102504.50
2023-03-03T07:38:26.450Z,102503.41
2023-03-03T07:41:20.855Z,102498.94
2023-03-03T07:44:13.381Z,102501.91
2023-03-03T07:47:13.712Z,102506.38
2023-03-03T07:50:09.012Z,102511.94
2023-03-03T07:52:57.981Z,102511.34
2023-03-03T07:55:45.716Z,102515.38
2023-03-03T07:58:39.613Z,102518.56
2023-03-03T08:01:42.582Z,102524.72
2023-03-03T08:04:40.283Z,102527.09
2023-03-03T08:07:27.268Z,102533.06
2023-03-03T08:10:35.937Z,102533.91
2023-03-03T08:13:24.496Z,102536.09
2023-03-03T08:16:31.148Z,102538.88
2023-03-03T08:19:18.911Z,102544.09
2023-03-03T08:22:15.888Z,102550.88
2023-03-03T08:25:02.646Z,102542.06
2023-03-03T08:27:48.921Z,102543.09
2023-03-03T08:30:35.585Z,102542.75
2023-03-03T08:33:22.077Z,102543.25
2023-03-03T08:36:09.200Z,102545.63
2023-03-03T08:38:56.842Z,102537.53
2023-03-03T08:41:44.346Z,102546.03
2023-03-03T08:44:30.825Z,102549.44
2023-03-03T08:47:17.325Z,102554.44
2023-03-03T08:50:03.888Z,102551.56
2023-03-03T08:52:50.079Z,102549.59
2023-03-03T08:55:38.140Z,102551.41
2023-03-03T08:58:34.720Z,102549.63
2023-03-03T09:01:22.349Z,102552.88
2023-03-03T09:04:08.796Z,102554.47
2023-03-03T09:06:55.337Z,102553.81
2023-03-03T09:09:41.713Z,102554.31
2023-03-03T09:12:34.409Z,102556.84
2023-03-03T09:15:23.771Z,102550.44
2023-03-03T09:18:16.576Z,102539.91
2023-03-03T09:21:03.056Z,102544.31
2023-03-03T09:23:56.113Z,102549.75
2023-03-03T09:26:47.441Z,102548.13
2023-03-03T09:29:38.314Z,102547.66
2023-03-03T09:32:34.787Z,102547.06
2023-03-03T09:35:38.776Z,102544.59
2023-03-03T09:38:30.968Z,102539.75
2023-03-03T09:41:31.551Z,102543.16
2023-03-03T09:44:42.974Z,102553.88
2023-03-03T09:47:39.440Z,102547.09
2023-03-03T09:50:37.645Z,102552.47
2023-03-03T09:53:39.617Z,102559.50
2023-03-03T09:56:33.825Z,102561.53
2023-03-03T09:59:34.172Z,102569.97
2023-03-03T10:02:39.345Z,102568.84
2023-03-03T10:05:46.392Z,102576.69
2023-03-03T10:08:54.766Z,102583.41
2023-03-03T10:11:49.234Z,102574.56
2023-03-03T10:14:59.704Z,102572.00
2023-03-03T10:17:52.272Z,102573.06
2023-03-03T10:20:54.329Z,102571.34
2023-03-03T10:23:57.657Z,102576.72
2023-03-03T10:27:14.282Z,102579.31
2023-03-03T10:30:11.967Z,102579.81
2023-03-03T10:33:05.464Z,102571.63
2023-03-03T10:36:25.185Z,102577.47
2023-03-03T10:39:39.684Z,102587.97
2023-03-03T10:42:45.173Z,102589.88
2023-03-03T10:45:55.719Z,102591.06
2023-03-03T10:49:09.994Z,102594.56
2023-03-03T10:52:20.369Z,102592.53
2023-03-03T10:55:21.366Z,102601.47
2023-03-03T10:58:32.311Z,102605.59
2023-03-03T11:01:27.821Z,102602.78
2023-03-03T11:04:38.115Z,102601.69
2023-03-03T11:07:30.033Z,102607.50
2023-03-03T11:10:25.501Z,102606.13
2023-03-03T11:13:20.968Z,102607.47
2023-03-03T11:16:41.477Z,102594.69
2023-03-03T11:19:53.857Z,102596.31
2023-03-03T11:22:48.012Z,102595.59
2023-03-03T11:25:40.174Z,102594.28
2023-03-03T11:28:38.658Z,102604.03
2023-03-03T11:31:32.461Z,102605.75
2023-03-03T11:34:41.133Z,102607.81
2023-03-03T11:37:38.357Z,102598.06
2023-03-03T11:40:28.781Z,102601.84
2023-03-03T11:43:35.415Z,102599.13
2023-03-03T11:46:27.615Z,102608.31
2023-03-03T11:49:22.703Z,102611.81
2023-03-03T11:52:25.259Z,102605.25
2023-03-03T11:55:18.594Z,102604.16
2023-03-03T11:58:13.776Z,102604.06
2023-03-03T12:01:09.544Z,102607.41
2023-03-03T12:04:00.929Z,102602.59
2023-03-03T12:07:12.994Z,102605.03
2023-03-03T12:10:14.866Z,102607.59
2023-03-03T12:13:07.495Z,102606.47
2023-03-03T12:16:02.656Z,102599.13
2023-03-03T12:19:04.025Z,102605.31
2023-03-03T12:22:06.557Z,102611.88
2023-03-03T12:25:06.169Z,102600.81
2023-03-03T12:27:59.588Z,102601.53
2023-03-03T12:31:23.687Z,102599.56
2023-03-03T12:34:17.767Z,102607.63
2023-03-03T12:37:19.412Z,102608.03
2023-03-03T12:40:13.197Z,102608.47
2023-03-03T12:43:13.809Z,102604.03
2023-03-03T12:46:07.955Z,102600.59
2023-03-03T12:48:55.830Z,102606.22
2023-03-03T12:52:01.211Z,102606.22
2023-03-03T12:55:09.455Z,102611.31
2023-03-03T12:58:05.222Z,102601.50
2023-03-03T13:01:01.303Z,102596.34
2023-03-03T13:04:00.247Z,102598.53
2023-03-03T13:06:52.182Z,102598.91
2023-03-03T13:09:55.789Z,102597.19
2023-03-03T13:12:46.361Z,102593.59
2023-03-03T13:15:37.791Z,102584.22
2023-03-03T13:18:37.239Z,102579.44
2023-03-03T13:21:31.915Z,102590.69
2023-03-03T13:24:23.536Z,102590.28
2023-03-03T13:27:14.006Z,102598.94
2023-03-03T13:30:03.660Z,102598.47
2023-03-03T13:32:55.940Z,102587.81
2023-03-03T13:35:47.360Z,102593.16
2023-03-03T13:38:42.540Z,102589.66
2023-03-03T13:41:34.823Z,102582.81
2023-03-03T13:44:26.600Z,102586.22
2023-03-03T13:47:18.524Z,102580.78
2023-03-03T13:50:18.421Z,102573.63
2023-03-03T13:53:26.854Z,102578.03
2023-03-03T13:56:28.371Z,102574.66
2023-03-03T13:59:25.864Z,102573.53
2023-03-03T14:02:32.893Z,102579.25
2023-03-03T14:05:27.776Z,102577.69
2023-03-03T14:08:27.320Z,102580.78
2023-03-03T14:11:24.873Z,102579.47
2023-03-03T14:14:23.299Z,102583.84
2023-03-03T14:17:16.867Z,102580.81
2023-03-03T14:20:16.647Z,102575.72
2023-03-03T14:23:04.597Z,102583.09
2023-03-03T14:25:54.462Z,102577.50
2023-03-03T14:28:45.309Z,102575.19
2023-03-03T14:31:40.871Z,102588.97
2023-03-03T14:34:37.141Z,102585.16
2023-03-03T14:37:26.234Z,102574.09
2023-03-03T14:40:20.478Z,102575.59
2023-03-03T14:43:22.842Z,102569.94
2023-03-03T14:46:37.077Z,102564.81
2023-03-03T14:49:31.678Z,102567.94
2023-03-03T14:52:24.857Z,102559.56
2023-03-03T14:55:34.048Z,102559.69
2023-03-03T14:58:30.235Z,102558.91
2023-03-03T15:01:23.043Z,102559.66
2023-03-03T15:04:25.724Z,102556.09
2023-03-03T15:07:28.757Z,102561.63
2023-03-03T15:10:32.228Z,102563.31
2023-03-03T15:13:34.623Z,102559.84
2023-03-03T15:16:23.755Z,102559.47
2023-03-03T15:19:45.859Z,102559.72
2023-03-03T15:22:55.657Z,102551.50
2023-03-03T15:25:53.762Z,102558.66
2023-03-03T15:28:55.461Z,102555.13
2023-03-03T15:31:50.341Z,102550.50
2023-03-03T15:34:44.275Z,102557.59
2023-03-03T15:37:44.503Z,102548.72
2023-03-03T15:40:35.165Z,102546.03
2023-03-03T15:43:27.950Z,102537.59
2023-03-03T15:46:27.111Z,102546.38
2023-03-03T15:49:21.093Z,102547.56
2023-03-03T15:52:25.423Z,102544.75
2023-03-03T15:55:28.958Z,102541.06
2023-03-03T15:58:41.242Z,102534.97
2023-03-03T16:01:30.723Z,102526.16
2023-03-03T16:04:20.807Z,102531.41
2023-03-03T16:07:16.759Z,102534.09
2023-03-03T16:10:13.984Z,102539.13
2023-03-03T16:13:20.042Z,102533.25
2023-03-03T16:16:19.054Z,102537.06
2023-03-03T16:19:19.015Z,102540.00
2023-03-03T16:22:27.349Z,102542.84
2023-03-03T16:25:28.019Z,102534.78
2023-03-03T16:28:22.110Z,102531.31
2023-03-03T16:31:13.562Z,102532.69
2023-03-03T16:34:07.111Z,102534.88
2023-03-03T16:37:03.708Z,102532.41
2023-03-03T16:39:56.474Z,102531.19
2023-03-03T16:42:42.535Z,102533.78
2023-03-03T16:45:34.464Z,102531.63
2023-03-03T16:48:32.303Z,102531.75
2023-03-03T16:51:30.651Z,102531.00
2023-03-03T16:54:23.494Z,102528.53
2023-03-03T16:57:17.869Z,102536.09
2023-03-03T17:00:10.507Z,102545.00
2023-03-03T17:03:14.799Z,102540.75
2023-03-03T17:06:07.171Z,102544.63
2023-03-03T17:09:30.301Z,102547.16
2023-03-03T17:12:36.069Z,102546.41
2023-03-03T17:15:34.789Z,102548.94
2023-03-03T17:18:32.270Z,102551.63
2023-03-03T17:21:29.722Z,102555.16
2023-03-03T17:24:25.623Z,102543.91
2023-03-03T17:27:18.568Z,102557.97
2023-03-03T17:30:15.536Z,102552.31
2023-03-03T17:33:25.713Z,102554.03
2023-03-03T17:36:28.533Z,102553.28
2023-03-03T17:39:34.121Z,102557.09
2023-03-03T17:42:26.338Z,102553.69
2023-03-03T17:45:15.541Z,102564.38
2023-03-03T17:48:14.837Z,102556.91
2023-03-03T17:51:23.862Z,102558.03
2023-03-03T17:54:28.196Z,102558.28
2023-03-03T17:57:30.608Z,102561.97
2023-03-03T18:00:31.334Z,102562.13
2023-03-03T18:03:34.146Z,102561.56
2023-03-03T18:06:39.727Z,102567.50
2023-03-03T18:09:44.702Z,102569.25
2023-03-03T18:12:43.770Z,102572.59
2023-03-03T18:16:05.287Z,102577.22
2023-03-03T18:19:10.816Z,102581.91
2023-03-03T18:22:06.573Z,102579.56
2023-03-03T18:24:59.872Z,102587.03
2023-03-03T18:27:46.860Z,102580.91
2023-03-03T18:30:56.213Z,102579.34
2023-03-03T18:33:44.919Z,102585.69
2023-03-03T18:36:51.812Z,102590.44
2023-03-03T18:39:45.736Z,102585.16
2023-03-03T18:42:38.177Z,102586.38
2023-03-03T18:45:50.775Z,102591.66
2023-03-03T18:48:50.344Z,102592.22
2023-03-03T18:52:11.053Z,102598.38
2023-03-03T18:55:27.218Z,102601.28
2023-03-03T18:58:30.231Z,102597.50
2023-03-03T19:01:43.176Z,102597.88
2023-03-03T19:04:37.703Z,102596.13
2023-03-03T19:07:27.990Z,102595.41
2023-03-03T19:10:48.233Z,102600.88
2023-03-03T19:13:47.824Z,102610.81
2023-03-03T19:16:37.471Z,102608.44
2023-03-03T19:19:30.090Z,102613.19
2023-03-03T19:22:25.710Z,102610.72
2023-03-03T19:25:24.193Z,102615.66
2023-03-03T19:28:30.323Z,102612.97
2023-03-03T19:31:27.634Z,102620.75
2023-03-03T19:34:23.116Z,102608.88
2023-03-03T19:37:26.272Z,102605.47
2023-03-03T19:40:24.060Z,102611.13
2023-03-03T19:43:18.448Z,102609.03
2023-03-03T19:46:32.661Z,102617.84
2023-03-03T19:49:27.933Z,102615.03
2023-03-03T19:52:23.402Z,102619.78
2023-03-03T19:55:35.587Z,102624.91
2023-03-03T19:58:30.261Z,102619.72
2023-03-03T20:01:24.616Z,102619.66
2023-03-03T20:04:31.050Z,102627.31
2023-03-03T20:07:31.227Z,102617.38
2023-03-03T20:10:25.504Z,102628.00
2023-03-03T20:13:28.533Z,102621.56
2023-03-03T20:16:26.709Z,102626.31
2023-03-03T20:19:31.124Z,102622.63
2023-03-03T20:22:24.026Z,102629.75
2023-03-03T20:25:27.004Z,102628.31
2023-03-03T20:28:40.442Z,102626.31
2023-03-03T20:31:35.622Z,102631.09
2023-03-03T20:34:32.161Z,102624.06
2023-03-03T20:37:27.307Z,102626.94
2023-03-03T20:40:27.200Z,102633.41
2023-03-03T20:43:27.275Z,102632.75
2023-03-03T20:46:22.260Z,102630.19
2023-03-03T20:49:23.750Z,102640.72
2023-03-03T20:52:18.704Z,102640.22
2023-03-03T20:55:15.613Z,102634.25
2023-03-03T20:58:13.682Z,102628.22
2023-03-03T21:01:06.826Z,102628.00
2023-03-03T21:03:54.289Z,102633.09
2023-03-03T21:06:41.446Z,102637.63
2023-03-03T21:09:31.824Z,102634.59
2023-03-03T21:12:29.723Z,102629.56
2023-03-03T21:15:24.950Z,102629.03
2023-03-03T21:18:23.789Z,102624.28
2023-03-03T21:21:10.142Z,102624.53
2023-03-03T21:23:56.808Z,102623.97
2023-03-03T21:26:50.159Z,102627.50
2023-03-03T21:29:36.889Z,102633.28
2023-03-03T21:32:37.082Z,102632.53
2023-03-03T21:35:23.708Z,102623.38
2023-03-03T21:38:09.941Z,102627.16
2023-03-03T21:41:03.661Z,102624.91
2023-03-03T21:43:53.461Z,102627.16
2023-03-03T21:46:39.994Z,102632.22
2023-03-03T21:49:26.507Z,102625.53
2023-03-03T21:52:14.306Z,102626.84
2023-03-03T21:55:00.538Z,102625.09
2023-03-03T21:57:46.877Z,102608.22
2023-03-03T22:00:34.610Z,102617.84
2023-03-03T22:03:21.233Z,102615.16
2023-03-03T22:06:08.363Z,102621.66
2023-03-03T22:08:54.449Z,102611.34
2023-03-03T22:11:41.057Z,102605.13
2023-03-03T22:14:27.715Z,102608.56
2023-03-03T22:17:15.823Z,102600.72
2023-03-03T22:20:02.058Z,102615.03
2023-03-03T22:22:48.541Z,102615.88
2023-03-03T22:25:34.767Z,102619.53
2023-03-03T22:28:20.846Z,102613.94
2023-03-03T22:31:07.368Z,102626.53
2023-03-03T22:33:55.020Z,102619.84
2023-03-03T22:36:41.226Z,102616.41
2023-03-03T22:39:27.669Z,102622.84
2023-03-03T22:42:14.183Z,102623.00
2023-03-03T22:45:00.673Z,102617.22
2023-03-03T22:47:47.026Z,102623.22
2023-03-03T22:50:39.350Z,102613.53
2023-03-03T22:53:26.260Z,102613.91
2023-03-03T22:56:13.036Z,102618.06
2023-03-03T22:58:59.402Z,102620.22
2023-03-03T23:01:45.977Z,102623.03
2023-03-03T23:04:33.564Z,102620.13
2023-03-03T23:07:21.470Z,102616.47
2023-03-03T23:10:08.971Z,102611.72
2023-03-03T23:12:55.589Z,102616.81
2023-03-03T23:15:41.809Z,102619.28
2023-03-03T23:18:28.637Z,102622.06
2023-03-03T23:21:14.991Z,102616.81
2023-03-03T23:24:02.915Z,102605.31
2023-03-03T23:26:51.703Z,102613.91
2023-03-03T23:29:38.313Z,102609.69
2023-03-03T23:32:24.764Z,102607.13
2023-03-03T23:35:11.578Z,102610.56
2023-03-03T23:37:58.086Z,102618.88
2023-03-03T23:40:46.959Z,102611.75
2023-03-03T23:43:33.572Z,102617.50
2023-03-03T23:46:19.677Z,102618.00
2023-03-03T23:49:05.864Z,102612.56
2023-03-03T23:51:52.452Z,102614.81
2023-03-03T23:54:38.961Z,102610.28
2023-03-03T23:57:27.242Z,102608.22
